Time;durP1;ratioP1;P1;durP2;ratioP2;P2;SDS_P1;SDS_P2;PMS_P1;PMS_P2;Temp;Humidity;BMP_temperature;BMP_pressure;BME280_temperature;BME280_humidity;BME280_pressure;Samples;Min_cycle;Max_cycle;Signal;HPM_P1;HPM_P2
2022/05/26 00:00:59;;;;;;;3.80;1.65;;;15.20;99.90;;;;;;6234323;23;20008;-72
2022/05/26 00:03:25;;;;;;;1.40;1.30;;;15.10;99.90;;;;;;6237921;23;20012;-72
2022/05/26 00:05:51;;;;;;;3.03;1.30;;;15.00;99.90;;;;;;6233860;23;20027;-73
2022/05/26 00:08:17;;;;;;;1.88;1.30;;;15.00;99.90;;;;;;6231076;23;20000;-72
2022/05/26 00:10:43;;;;;;;1.08;1.00;;;14.90;99.90;;;;;;6231669;23;20014;-72
2022/05/26 00:13:08;;;;;;;2.13;1.00;;;14.90;99.90;;;;;;6234363;23;20039;-73
2022/05/26 00:15:34;;;;;;;1.20;1.10;;;15.00;99.90;;;;;;6233875;23;20004;-70
2022/05/26 00:18:00;;;;;;;1.77;1.10;;;14.90;99.90;;;;;;6235690;23;20015;-71
2022/05/26 00:20:25;;;;;;;1.38;1.27;;;14.70;99.90;;;;;;6234689;23;20004;-72
2022/05/26 00:22:51;;;;;;;1.13;1.02;;;14.50;99.90;;;;;;6235848;23;20008;-72
2022/05/26 00:25:17;;;;;;;1.50;1.02;;;14.40;99.90;;;;;;6233089;23;20012;-72
2022/05/26 00:27:43;;;;;;;1.60;1.10;;;14.50;99.90;;;;;;6235301;23;20008;-74
2022/05/26 00:30:09;;;;;;;2.88;1.25;;;14.60;99.90;;;;;;6233290;23;20018;-73
2022/05/26 00:32:35;;;;;;;2.05;1.10;;;14.50;99.90;;;;;;6236274;23;20075;-73
2022/05/26 00:35:01;;;;;;;1.02;0.90;;;14.40;99.90;;;;;;6235319;23;20471;-73
2022/05/26 00:37:26;;;;;;;6.15;2.17;;;14.40;99.90;;;;;;6233977;22;20004;-73
2022/05/26 00:39:52;;;;;;;1.77;0.80;;;14.60;99.90;;;;;;6235331;23;20397;-73
2022/05/26 00:42:18;;;;;;;3.63;1.20;;;14.60;99.90;;;;;;6235503;23;20027;-73
2022/05/26 00:44:44;;;;;;;1.98;1.17;;;14.70;99.90;;;;;;6232682;23;20377;-72
2022/05/26 00:47:17;;;;;;;3.13;0.70;;;14.70;99.90;;;;;;6235538;23;20379;-73
2022/05/26 00:49:49;;;;;;;0.60;0.60;;;14.70;99.90;;;;;;6235650;23;20075;-72
2022/05/26 00:52:18;;;;;;;1.77;0.70;;;14.80;99.90;;;;;;6236417;23;20221;-73
2022/05/26 00:54:47;;;;;;;0.63;0.40;;;14.80;99.90;;;;;;6234847;23;20386;-73
2022/05/26 00:57:24;;;;;;;0.95;0.68;;;14.80;99.90;;;;;;6234260;23;20007;-72
2022/05/26 01:00:04;;;;;;;0.70;0.70;;;14.80;99.90;;;;;;6236451;23;20083;-74
2022/05/26 01:02:36;;;;;;;1.83;0.70;;;14.80;99.90;;;;;;6237536;23;20008;-73
2022/05/26 01:05:10;;;;;;;0.85;0.63;;;14.80;99.90;;;;;;6234933;23;20439;-73
2022/05/26 01:07:38;;;;;;;4.05;0.43;;;14.90;99.90;;;;;;6235304;23;20075;-73
2022/05/26 01:10:06;;;;;;;0.60;0.60;;;14.90;99.90;;;;;;6231550;23;20144;-72
2022/05/26 01:12:32;;;;;;;1.92;0.50;;;15.00;99.90;;;;;;6235659;23;20283;-72
2022/05/26 01:15:04;;;;;;;1.17;0.63;;;15.00;99.90;;;;;;6234092;23;20069;-73
2022/05/26 01:17:39;;;;;;;1.03;0.73;;;14.90;99.90;;;;;;6235107;23;20063;-72
2022/05/26 01:20:20;;;;;;;2.08;0.80;;;14.90;99.90;;;;;;6234438;23;20083;-73
2022/05/26 01:22:56;;;;;;;0.80;0.70;;;14.70;99.90;;;;;;6233101;23;20007;-73
2022/05/26 01:25:47;;;;;;;1.00;0.47;;;14.70;99.90;;;;;;6235356;23;20781;-73
2022/05/26 01:28:51;;;;;;;2.00;0.60;;;14.70;99.90;;;;;;6230095;23;20016;-72
2022/05/26 01:31:31;;;;;;;0.40;0.40;;;14.70;99.90;;;;;;6234723;23;20000;-73
2022/05/26 01:34:22;;;;;;;3.17;0.70;;;14.80;99.90;;;;;;6235265;23;20004;-71
2022/05/26 01:36:54;;;;;;;1.52;0.60;;;14.80;99.90;;;;;;6233743;23;20007;-71
2022/05/26 01:39:51;;;;;;;0.43;0.43;;;14.70;99.90;;;;;;6234731;23;20016;-72
2022/05/26 01:42:41;;;;;;;1.35;0.85;;;14.40;99.90;;;;;;6235667;23;20071;-71
2022/05/26 01:45:51;;;;;;;5.93;0.63;;;14.30;99.90;;;;;;6233304;23;20027;-72
2022/05/26 01:48:56;;;;;;;2.35;0.80;;;14.30;99.90;;;;;;6227938;23;20087;-72
2022/05/26 01:51:31;;;;;;;0.75;0.50;;;14.40;99.90;;;;;;6236380;23;20740;-73
2022/05/26 01:54:11;;;;;;;1.42;0.60;;;14.40;99.90;;;;;;6234773;23;20004;-71
2022/05/26 01:57:10;;;;;;;1.92;0.60;;;14.50;99.90;;;;;;6235097;23;20014;-72
2022/05/26 01:59:44;;;;;;;0.70;0.47;;;14.50;99.90;;;;;;6215812;23;20200;-73
2022/05/26 02:02:15;;;;;;;1.92;0.55;;;14.40;99.90;;;;;;6233298;23;20087;-73
2022/05/26 02:04:45;;;;;;;0.73;0.73;;;14.30;99.90;;;;;;6204644;23;20437;-73
2022/05/26 02:07:33;;;;;;;0.50;0.50;;;14.40;99.90;;;;;;6231900;23;20039;-73
2022/05/26 02:10:03;;;;;;;1.48;0.60;;;14.30;99.90;;;;;;6232694;23;20000;-73
2022/05/26 02:12:35;;;;;;;0.80;0.57;;;14.20;99.90;;;;;;6234044;23;20007;-73
2022/05/26 02:15:13;;;;;;;0.63;0.50;;;14.20;99.90;;;;;;6232410;23;20000;-73
2022/05/26 02:17:44;;;;;;;1.20;0.50;;;14.10;99.90;;;;;;6232903;23;20008;-73
2022/05/26 02:20:40;;;;;;;0.80;0.80;;;14.10;99.90;;;;;;6231505;22;20237;-74
2022/05/26 02:23:20;;;;;;;0.75;0.63;;;14.00;99.90;;;;;;6230780;23;20495;-73
2022/05/26 02:25:46;;;;;;;0.80;0.70;;;13.90;99.90;;;;;;6232418;23;20020;-72
2022/05/26 02:28:12;;;;;;;0.75;0.60;;;13.80;99.90;;;;;;6235175;23;20375;-76
2022/05/26 02:30:41;;;;;;;0.63;0.60;;;13.80;99.90;;;;;;6233870;23;20067;-74
2022/05/26 02:33:10;;;;;;;0.50;0.50;;;13.80;99.90;;;;;;6232382;23;20561;-75
2022/05/26 02:35:41;;;;;;;4.50;0.70;;;13.80;99.90;;;;;;6233401;22;20098;-75
2022/05/26 02:38:10;;;;;;;1.70;0.70;;;13.80;99.90;;;;;;6231094;23;20004;-74
2022/05/26 02:40:36;;;;;;;0.88;0.70;;;13.60;99.90;;;;;;6233620;23;20031;-75
2022/05/26 02:43:10;;;;;;;1.27;0.60;;;13.70;99.90;;;;;;6205791;23;20015;-75
2022/05/26 02:45:44;;;;;;;46.78;2.60;;;13.70;99.90;;;;;;6233969;23;20166;-77
2022/05/26 02:48:25;;;;;;;5.13;0.93;;;13.70;99.90;;;;;;6234695;23;20756;-77
2022/05/26 02:51:17;;;;;;;6.90;0.77;;;13.60;99.90;;;;;;6234946;23;20020;-80
2022/05/26 02:53:50;;;;;;;0.73;0.40;;;13.50;99.90;;;;;;6232258;23;20418;-76
2022/05/26 02:56:41;;;;;;;1.83;0.70;;;13.30;99.90;;;;;;6233832;23;20058;-77
2022/05/26 02:59:25;;;;;;;1.58;0.80;;;13.30;99.90;;;;;;6234211;23;20395;-77
2022/05/26 03:01:59;;;;;;;4.22;0.60;;;13.30;99.90;;;;;;6234398;23;20059;-78
2022/05/26 03:04:34;;;;;;;1.20;0.60;;;13.20;99.90;;;;;;6231946;23;20454;-77
2022/05/26 03:07:20;;;;;;;1.27;0.60;;;13.20;99.90;;;;;;6231910;23;20014;-76
2022/05/26 03:09:46;;;;;;;0.55;0.50;;;13.30;99.90;;;;;;6232233;23;20000;-77
2022/05/26 03:12:26;;;;;;;0.63;0.40;;;13.30;99.90;;;;;;6234525;23;20008;-77
2022/05/26 03:14:52;;;;;;;0.65;0.50;;;13.50;99.90;;;;;;6233798;23;20066;-77
2022/05/26 03:17:17;;;;;;;3.40;0.40;;;13.60;99.90;;;;;;6233684;23;20015;-79
2022/05/26 03:19:44;;;;;;;2.13;0.40;;;13.70;99.90;;;;;;6232775;23;20008;-78
2022/05/26 03:22:10;;;;;;;0.85;0.40;;;13.90;99.90;;;;;;6233454;23;20004;-78
2022/05/26 03:24:36;;;;;;;0.47;0.28;;;14.10;99.90;;;;;;6232970;23;20027;-80
2022/05/26 03:27:01;;;;;;;0.47;0.47;;;14.30;99.90;;;;;;6204868;23;20500;-78
2022/05/26 03:29:27;;;;;;;1.17;0.57;;;14.40;99.90;;;;;;6233365;23;20000;-77
2022/05/26 03:31:53;;;;;;;0.77;0.68;;;14.50;99.90;;;;;;6236692;23;20194;-79
2022/05/26 03:42:31;;;;;;;1.50;0.50;;;14.70;99.90;;;;;;6235761;23;20062;-80
2022/05/26 03:44:58;;;;;;;0.75;0.30;;;14.80;99.90;;;;;;6237105;23;20627;-80
2022/05/26 03:47:23;;;;;;;0.70;0.43;;;14.90;99.90;;;;;;6236548;23;20015;-78
2022/05/26 03:49:49;;;;;;;0.88;0.50;;;14.90;99.90;;;;;;6236304;23;20030;-77
2022/05/26 03:52:15;;;;;;;0.30;0.30;;;15.00;99.90;;;;;;6235854;23;20016;-78
2022/05/26 03:54:41;;;;;;;1.88;0.50;;;15.10;99.90;;;;;;6231572;23;20174;-77
2022/05/26 03:57:07;;;;;;;0.68;0.45;;;15.20;99.90;;;;;;6234566;23;20039;-78
2022/05/26 03:59:34;;;;;;;0.47;0.32;;;15.30;99.90;;;;;;6234942;23;20115;-76
2022/05/26 04:02:00;;;;;;;0.45;0.40;;;15.30;99.90;;;;;;6234599;23;20096;-78
2022/05/26 04:04:26;;;;;;;1.63;0.65;;;15.40;99.90;;;;;;6232238;23;20831;-78
2022/05/26 04:06:51;;;;;;;1.15;0.50;;;15.50;99.90;;;;;;6235995;23;20015;-78
2022/05/26 04:09:17;;;;;;;3.47;0.65;;;15.60;99.90;;;;;;6234010;23;20039;-79
2022/05/26 04:11:43;;;;;;;1.45;0.60;;;15.60;99.90;;;;;;6235272;23;20008;-80
2022/05/26 04:14:09;;;;;;;0.80;0.40;;;15.70;99.90;;;;;;6236404;23;20046;-79
2022/05/26 04:16:35;;;;;;;0.80;0.50;;;15.80;99.70;;;;;;6236475;23;20020;-76
2022/05/26 04:19:01;;;;;;;1.88;0.45;;;15.80;99.50;;;;;;6235423;23;20097;-80
2022/05/26 04:21:27;;;;;;;1.05;0.47;;;15.90;99.50;;;;;;6234608;23;20380;-79
2022/05/26 04:23:52;;;;;;;1.60;0.40;;;16.00;99.50;;;;;;6236558;23;20027;-79
2022/05/26 04:26:18;;;;;;;2.00;0.45;;;16.10;99.40;;;;;;6230949;23;20027;-78
2022/05/26 04:28:44;;;;;;;0.57;0.40;;;16.20;99.50;;;;;;6238150;23;20104;-77
2022/05/26 04:31:09;;;;;;;2.72;0.40;;;16.30;99.60;;;;;;6234699;23;20012;-77
2022/05/26 04:33:36;;;;;;;0.85;0.50;;;16.20;99.40;;;;;;6238818;23;20008;-78
2022/05/26 04:36:03;;;;;;;1.50;0.60;;;16.30;99.60;;;;;;6234556;23;20004;-78
2022/05/26 04:38:29;;;;;;;0.90;0.60;;;16.30;99.50;;;;;;6236932;23;20008;-75
2022/05/26 04:41:02;;;;;;;1.15;0.60;;;16.40;99.70;;;;;;6235240;23;20303;-78
2022/05/26 04:43:28;;;;;;;0.52;0.52;;;16.40;99.80;;;;;;6235169;23;20012;-79
2022/05/26 04:45:54;;;;;;;1.95;0.63;;;16.40;99.90;;;;;;6207833;23;20115;-81
2022/05/26 04:48:21;;;;;;;2.20;0.60;;;16.50;99.90;;;;;;6234049;23;20050;-81
2022/05/26 04:50:52;;;;;;;1.80;0.65;;;16.50;99.90;;;;;;6235827;23;20008;-80
2022/05/26 04:53:19;;;;;;;0.73;0.60;;;16.60;99.90;;;;;;6229188;23;20083;-81
2022/05/26 04:55:46;;;;;;;0.70;0.50;;;16.70;99.90;;;;;;6233292;23;20450;-80
2022/05/26 04:58:11;;;;;;;2.58;1.10;;;16.80;99.90;;;;;;6233147;23;20032;-81
2022/05/26 05:00:37;;;;;;;1.05;0.60;;;16.90;99.90;;;;;;6230490;23;20545;-80
2022/05/26 05:03:03;;;;;;;1.15;0.90;;;16.90;99.90;;;;;;6233081;23;20012;-77
2022/05/26 05:05:29;;;;;;;14.82;1.80;;;17.00;99.90;;;;;;6232468;23;20130;-75
2022/05/26 05:07:55;;;;;;;1.75;0.73;;;16.90;99.90;;;;;;6232466;23;20015;-80
2022/05/26 05:10:20;;;;;;;5.32;0.88;;;17.00;99.90;;;;;;6229385;23;20086;-83
2022/05/26 05:12:49;;;;;;;1.35;0.70;;;17.10;99.90;;;;;;6206812;23;20004;-74
2022/05/26 05:15:21;;;;;;;0.63;0.52;;;17.20;99.90;;;;;;6234489;23;20070;-76
2022/05/26 05:17:48;;;;;;;3.13;1.15;;;17.30;99.90;;;;;;6234547;23;20054;-79
2022/05/26 05:20:13;;;;;;;1.05;0.50;;;17.30;99.90;;;;;;6231868;23;20342;-81
2022/05/26 05:22:43;;;;;;;1.38;0.73;;;17.40;99.90;;;;;;6236048;23;20007;-73
2022/05/26 05:25:16;;;;;;;3.05;0.75;;;17.60;99.90;;;;;;6235974;23;20012;-81
2022/05/26 05:27:53;;;;;;;1.58;0.90;;;17.70;99.90;;;;;;6234720;23;20377;-80
2022/05/26 05:30:24;;;;;;;1.17;0.75;;;17.90;99.60;;;;;;6235836;23;20114;-82
2022/05/26 05:32:57;;;;;;;0.50;0.50;;;18.00;99.10;;;;;;6234393;23;20075;-81
2022/05/26 05:35:31;;;;;;;1.10;0.50;;;18.10;99.00;;;;;;6208168;23;20101;-81
2022/05/26 05:37:57;;;;;;;0.50;0.50;;;18.20;97.90;;;;;;6234385;23;20549;-82
2022/05/26 05:40:24;;;;;;;0.35;0.35;;;18.30;98.10;;;;;;6235426;23;20314;-84
2022/05/26 05:42:50;;;;;;;0.82;0.50;;;18.30;97.70;;;;;;6237445;23;20008;-84
2022/05/26 05:45:16;;;;;;;1.52;0.70;;;18.40;97.30;;;;;;6237565;23;20020;-82
2022/05/26 05:47:41;;;;;;;4.85;0.50;;;18.50;97.40;;;;;;6237231;23;20005;-82
2022/05/26 05:50:08;;;;;;;1.00;0.50;;;18.50;98.10;;;;;;6235657;23;20004;-83
2022/05/26 05:52:34;;;;;;;0.50;0.40;;;18.60;97.90;;;;;;6238552;23;20083;-83
2022/05/26 05:55:00;;;;;;;1.52;0.80;;;18.60;96.90;;;;;;6231983;23;20036;-81
2022/05/26 05:57:26;;;;;;;1.88;0.57;;;18.60;97.00;;;;;;6200993;23;20046;-82
2022/05/26 05:59:51;;;;;;;0.68;0.57;;;18.70;96.40;;;;;;6236856;23;20330;-84
2022/05/26 06:02:17;;;;;;;0.63;0.52;;;18.70;97.10;;;;;;6238859;23;20004;-83
2022/05/26 06:04:43;;;;;;;2.90;0.60;;;18.70;96.50;;;;;;6238960;23;20004;-83
2022/05/26 06:07:17;;;;;;;0.40;0.40;;;18.80;96.80;;;;;;6238938;23;20105;-85
2022/05/26 06:09:44;;;;;;;0.47;0.35;;;18.90;96.10;;;;;;6238356;23;20055;-84
2022/05/26 06:12:10;;;;;;;1.08;0.40;;;19.00;97.00;;;;;;6239685;23;20449;-84
2022/05/26 06:14:36;;;;;;;2.92;0.40;;;19.10;97.00;;;;;;6242497;23;20054;-83
2022/05/26 06:17:02;;;;;;;0.90;0.50;;;19.10;96.40;;;;;;6240361;23;20070;-84
2022/05/26 06:19:28;;;;;;;2.97;0.32;;;19.20;97.20;;;;;;6237091;23;20464;-81
2022/05/26 06:21:53;;;;;;;1.67;0.60;;;19.30;96.30;;;;;;6238829;23;20011;-83
2022/05/26 06:24:23;;;;;;;3.22;0.57;;;19.30;94.50;;;;;;6240257;23;20541;-82
2022/05/26 06:26:49;;;;;;;1.13;0.32;;;19.40;95.10;;;;;;6237887;23;20035;-84
2022/05/26 06:37:28;;;;;;;1.60;1.20;;;19.40;94.30;;;;;;6238800;23;20051;-83
2022/05/26 06:39:55;;;;;;;1.15;0.40;;;19.40;94.90;;;;;;6233728;23;20012;-84
2022/05/26 06:42:24;;;;;;;0.55;0.30;;;19.50;94.60;;;;;;6240087;23;20482;-83
2022/05/26 06:44:50;;;;;;;1.52;0.30;;;19.60;94.70;;;;;;6236914;23;20019;-84
2022/05/26 06:47:19;;;;;;;1.35;0.43;;;19.80;94.40;;;;;;6239358;23;20016;-85
2022/05/26 06:49:45;;;;;;;1.75;0.50;;;20.00;94.10;;;;;;6239562;23;20004;-84
2022/05/26 06:52:12;;;;;;;0.30;0.20;;;20.10;92.70;;;;;;6212841;23;20452;-83
2022/05/26 06:54:41;;;;;;;0.90;0.50;;;20.20;93.00;;;;;;6239369;23;20341;-80
2022/05/26 06:57:08;;;;;;;2.05;0.50;;;20.20;93.40;;;;;;6237630;23;20011;-83
2022/05/26 06:59:34;;;;;;;0.70;0.40;;;20.20;93.80;;;;;;6238880;23;20008;-82
2022/05/26 07:02:00;;;;;;;1.23;0.50;;;20.20;95.10;;;;;;6237440;23;20000;-80
2022/05/26 07:04:26;;;;;;;0.68;0.50;;;20.10;94.30;;;;;;6236048;23;20063;-82
2022/05/26 07:06:53;;;;;;;0.75;0.40;;;20.00;94.00;;;;;;6239553;23;20019;-83
2022/05/26 07:09:20;;;;;;;1.50;0.45;;;19.90;94.80;;;;;;6239003;23;20000;-83
2022/05/26 07:11:46;;;;;;;0.43;0.43;;;19.70;94.30;;;;;;6238287;23;20186;-79
2022/05/26 07:14:13;;;;;;;0.70;0.60;;;19.60;94.90;;;;;;6238339;23;20506;-81
2022/05/26 07:16:40;;;;;;;1.20;0.60;;;19.50;94.80;;;;;;6226674;23;20394;-84
2022/05/26 07:19:05;;;;;;;2.10;0.50;;;19.50;95.20;;;;;;6236065;23;20392;-84
2022/05/26 07:21:31;;;;;;;0.50;0.50;;;19.40;95.20;;;;;;6236751;23;20440;-81
2022/05/26 07:23:57;;;;;;;1.38;0.30;;;19.40;95.70;;;;;;6235914;23;20008;-81
2022/05/26 07:26:24;;;;;;;1.02;0.40;;;19.30;95.60;;;;;;6235609;23;20522;-81
2022/05/26 07:28:53;;;;;;;1.88;0.50;;;19.30;95.60;;;;;;6236471;23;20464;-82
2022/05/26 07:31:20;;;;;;;0.63;0.60;;;19.30;96.00;;;;;;6236946;23;20306;-81
2022/05/26 07:33:46;;;;;;;0.60;0.40;;;19.20;95.30;;;;;;6234461;23;20000;-81
2022/05/26 07:41:43;;;;;;;1.23;1.10;;;19.30;96.10;;;;;;6236396;23;20152;-82
2022/05/26 07:44:09;;;;;;;0.60;0.60;;;19.50;96.40;;;;;;6235385;23;20004;-82
2022/05/26 07:46:35;;;;;;;1.60;0.32;;;19.60;96.10;;;;;;6234145;23;20020;-82
2022/05/26 07:49:00;;;;;;;0.50;0.50;;;19.70;95.70;;;;;;6236233;23;20011;-82
2022/05/26 07:51:26;;;;;;;1.08;0.40;;;19.80;95.50;;;;;;6234291;23;20441;-83
2022/05/26 07:53:52;;;;;;;0.90;0.47;;;19.90;95.10;;;;;;6235993;23;19996;-82
2022/05/26 07:56:18;;;;;;;1.13;0.93;;;20.10;93.70;;;;;;6232622;23;20023;-82
2022/05/26 07:58:44;;;;;;;0.98;0.35;;;20.20;94.00;;;;;;6239467;23;20337;-79
2022/05/26 08:01:11;;;;;;;2.88;1.10;;;20.30;93.60;;;;;;6237633;23;20068;-82
2022/05/26 08:03:38;;;;;;;1.42;0.55;;;20.40;92.10;;;;;;6235711;23;20000;-80
2022/05/26 08:06:04;;;;;;;3.42;0.50;;;20.50;92.10;;;;;;6233572;23;20016;-83
2022/05/26 08:08:35;;;;;;;1.27;0.43;;;20.60;91.50;;;;;;6239476;23;20000;-82
2022/05/26 08:11:00;;;;;;;2.22;0.93;;;20.60;91.80;;;;;;6235596;23;20012;-82
2022/05/26 08:13:27;;;;;;;1.35;0.90;;;20.70;91.80;;;;;;6233026;23;20004;-81
2022/05/26 08:15:53;;;;;;;0.60;0.50;;;20.70;90.40;;;;;;6235210;23;20769;-82
2022/05/26 08:18:19;;;;;;;1.60;0.38;;;20.50;89.60;;;;;;6239271;23;20019;-79
2022/05/26 08:20:45;;;;;;;1.02;0.90;;;20.50;90.30;;;;;;6238217;23;20008;-78
2022/05/26 08:23:12;;;;;;;1.33;0.90;;;20.60;92.80;;;;;;6237970;23;20011;-81
2022/05/26 08:25:38;;;;;;;5.32;1.58;;;20.60;93.10;;;;;;6237809;23;20042;-81
2022/05/26 08:28:05;;;;;;;1.02;0.70;;;20.70;93.10;;;;;;6238506;23;20008;-81
2022/05/26 08:30:31;;;;;;;3.08;0.73;;;20.60;92.80;;;;;;6237510;23;20007;-80
2022/05/26 08:32:57;;;;;;;2.08;0.50;;;20.60;92.20;;;;;;6237246;23;20058;-78
2022/05/26 08:35:24;;;;;;;1.65;0.50;;;20.80;94.30;;;;;;6238542;23;20093;-80
2022/05/26 08:37:50;;;;;;;2.60;0.50;;;20.90;91.20;;;;;;6237394;23;20019;-81
2022/05/26 08:40:49;;;;;;;1.65;0.63;;;20.90;91.80;;;;;;6237002;23;19992;-80
2022/05/26 08:43:32;;;;;;;1.50;0.40;;;21.00;92.30;;;;;;6196397;23;20020;-82
2022/05/26 08:45:58;;;;;;;2.75;0.70;;;21.00;93.00;;;;;;6235880;23;20035;-82
2022/05/26 08:48:53;;;;;;;0.65;0.50;;;21.00;93.20;;;;;;6207969;23;20032;-78
2022/05/26 08:51:57;;;;;;;2.17;0.60;;;21.10;93.50;;;;;;6233480;23;20004;-82
2022/05/26 08:54:39;;;;;;;1.58;0.88;;;21.10;90.20;;;;;;6235748;23;20277;-81
2022/05/26 08:57:12;;;;;;;1.92;0.90;;;21.10;92.80;;;;;;6235467;23;20162;-81
2022/05/26 08:59:42;;;;;;;2.80;0.60;;;21.20;92.60;;;;;;6223808;23;20019;-82
2022/05/26 09:02:32;;;;;;;2.35;0.73;;;21.20;90.80;;;;;;6233195;23;20537;-83
2022/05/26 09:05:06;;;;;;;4.30;0.70;;;21.20;90.50;;;;;;6215898;23;20096;-81
2022/05/26 09:13:14;;;;;;;2.08;0.50;;;21.30;90.10;;;;;;6234199;23;20131;-80
2022/05/26 09:15:41;;;;;;;1.55;0.70;;;21.30;87.50;;;;;;6233057;23;20061;-81
2022/05/26 09:18:15;;;;;;;1.65;0.60;;;21.30;84.90;;;;;;6233243;23;20076;-77
2022/05/26 09:20:42;;;;;;;2.20;1.65;;;21.40;90.20;;;;;;6234913;23;20449;-80
2022/05/26 09:23:12;;;;;;;1.13;1.02;;;21.50;91.50;;;;;;6235393;23;20601;-82
2022/05/26 09:25:46;;;;;;;1.25;1.08;;;21.60;89.20;;;;;;6234270;23;20043;-81
2022/05/26 09:28:13;;;;;;;1.23;0.90;;;21.50;90.30;;;;;;6236235;23;20027;-82
2022/05/26 09:30:39;;;;;;;2.03;1.40;;;21.50;91.60;;;;;;6233577;23;20445;-81
2022/05/26 09:33:31;;;;;;;3.55;1.10;;;21.50;92.00;;;;;;6235589;23;20369;-79
2022/05/26 09:36:23;;;;;;;2.75;0.88;;;21.40;92.10;;;;;;6235353;23;20396;-78
2022/05/26 09:38:49;;;;;;;2.42;0.93;;;21.50;93.90;;;;;;6237689;23;20000;-79
2022/05/26 09:41:18;;;;;;;1.30;0.90;;;21.50;92.30;;;;;;6235728;23;20307;-80
2022/05/26 09:43:55;;;;;;;0.90;0.80;;;21.50;92.80;;;;;;6233244;23;20377;-79
2022/05/26 09:46:24;;;;;;;2.53;1.13;;;21.70;93.00;;;;;;6234638;23;20012;-69
2022/05/26 09:48:56;;;;;;;1.35;1.00;;;21.70;90.60;;;;;;6234256;23;20004;-69
2022/05/26 09:51:25;;;;;;;2.17;1.70;;;21.70;92.60;;;;;;6234507;23;20009;-69
2022/05/26 09:53:53;;;;;;;2.30;1.58;;;21.70;90.90;;;;;;6235696;23;20127;-68
2022/05/26 09:56:41;;;;;;;1.65;1.52;;;21.60;91.60;;;;;;6230547;23;20012;-70
2022/05/26 09:59:26;;;;;;;3.30;2.35;;;21.50;91.80;;;;;;6234140;23;20008;-69
2022/05/26 10:02:00;;;;;;;1.60;1.50;;;21.60;93.10;;;;;;6237547;23;20022;-71
2022/05/26 10:04:50;;;;;;;1.70;1.52;;;21.70;92.60;;;;;;6236665;23;20005;-71
2022/05/26 10:07:29;;;;;;;5.10;2.15;;;21.70;91.90;;;;;;6234231;23;20004;-71
2022/05/26 10:10:12;;;;;;;2.35;1.52;;;21.80;92.40;;;;;;6234110;23;20391;-71
2022/05/26 10:13:06;;;;;;;1.50;1.40;;;21.90;92.40;;;;;;6237337;23;20023;-71
2022/05/26 10:15:50;;;;;;;2.40;1.23;;;21.90;91.50;;;;;;6235887;23;20012;-72
2022/05/26 10:18:40;;;;;;;1.40;1.30;;;21.80;91.50;;;;;;6235319;23;20000;-72
2022/05/26 10:21:18;;;;;;;1.45;1.10;;;21.70;91.90;;;;;;6237175;23;20023;-73
2022/05/26 10:24:17;;;;;;;2.88;1.30;;;21.80;92.00;;;;;;6237196;23;20079;-72
2022/05/26 10:27:01;;;;;;;3.10;1.45;;;21.70;91.90;;;;;;6237523;23;20099;-73
2022/05/26 10:29:49;;;;;;;3.08;1.45;;;21.50;92.40;;;;;;6236109;23;20004;-74
2022/05/26 10:32:40;;;;;;;8.13;1.60;;;21.50;92.30;;;;;;6231532;23;20012;-74
2022/05/26 10:35:28;;;;;;;5.38;4.00;;;21.60;91.50;;;;;;6235686;23;20067;-71
2022/05/26 10:38:13;;;;;;;5.88;3.08;;;21.50;91.80;;;;;;6234307;23;20444;-71
2022/05/26 10:40:52;;;;;;;4.25;3.13;;;21.40;92.90;;;;;;6232836;23;20004;-75
2022/05/26 10:43:51;;;;;;;2.80;1.83;;;21.30;94.20;;;;;;6232872;23;20024;-75
2022/05/26 10:46:19;;;;;;;2.13;1.70;;;21.30;94.00;;;;;;6232662;23;20043;-75
2022/05/26 10:49:03;;;;;;;1.30;1.20;;;21.20;93.50;;;;;;6228261;23;20000;-74
2022/05/26 10:51:31;;;;;;;5.30;1.80;;;21.20;94.00;;;;;;6233072;23;20028;-74
2022/05/26 10:54:31;;;;;;;2.17;1.40;;;21.20;93.90;;;;;;6232926;23;20001;-74
2022/05/26 10:57:13;;;;;;;3.50;1.05;;;21.20;94.10;;;;;;6237228;23;20008;-73
2022/05/26 10:59:54;;;;;;;;;;;21.20;94.00;;;;;;6236649;23;20004;-74
2022/05/26 11:02:29;;;;;;;2.65;1.02;;;21.20;94.30;;;;;;6233429;23;20321;-74
2022/05/26 11:05:02;;;;;;;3.33;1.02;;;21.20;94.50;;;;;;6232874;23;20016;-73
2022/05/26 11:07:42;;;;;;;1.02;0.90;;;21.40;94.70;;;;;;6234219;23;20011;-73
2022/05/26 11:10:18;;;;;;;2.85;1.15;;;21.50;92.00;;;;;;6231935;23;20004;-74
2022/05/26 11:12:49;;;;;;;1.80;1.15;;;21.70;92.90;;;;;;6233394;23;20031;-73
2022/05/26 11:18:27;;;;;;;0.70;0.70;;;21.80;91.00;;;;;;6233279;23;20456;-71
2022/05/26 11:20:54;;;;;;;1.90;0.80;;;22.00;91.60;;;;;;6237215;23;20414;-71
2022/05/26 11:23:26;;;;;;;2.13;0.70;;;22.20;89.90;;;;;;6233140;23;20090;-71
2022/05/26 11:26:15;;;;;;;2.58;0.82;;;22.20;90.00;;;;;;6234930;23;20020;-73
2022/05/26 11:28:47;;;;;;;2.97;0.52;;;22.20;90.30;;;;;;6151294;23;20004;-72
2022/05/26 11:37:20;;;;;;;1.13;0.60;;;22.50;89.60;;;;;;6237043;23;20019;-75
2022/05/26 11:39:50;;;;;;;1.33;0.73;;;22.70;86.30;;;;;;6237379;23;20365;-73
2022/05/26 11:42:32;;;;;;;1.50;0.40;;;22.80;87.50;;;;;;6233268;23;20050;-74
2022/05/26 11:45:13;;;;;;;;;;;23.00;84.90;;;;;;6236977;23;20016;-74
2022/05/26 11:47:52;;;;;;;2.03;0.70;;;23.00;80.90;;;;;;6236539;23;20355;-74
2022/05/26 11:50:21;;;;;;;2.97;0.63;;;22.90;82.50;;;;;;6235756;23;20030;-74
2022/05/26 11:52:53;;;;;;;0.85;0.55;;;22.90;87.00;;;;;;6233315;23;20000;-75
2022/05/26 11:55:49;;;;;;;1.95;0.50;;;23.00;83.40;;;;;;6236464;23;20429;-75
2022/05/26 11:58:15;;;;;;;2.33;0.40;;;22.90;84.90;;;;;;6233025;23;20032;-71
2022/05/26 12:00:43;;;;;;;1.17;0.60;;;22.90;85.00;;;;;;6237344;23;20048;-72
2022/05/26 12:03:29;;;;;;;1.10;0.55;;;22.80;83.30;;;;;;6237298;23;20011;-73
2022/05/26 12:06:04;;;;;;;1.45;0.70;;;22.80;87.30;;;;;;6235655;23;20024;-70
2022/05/26 12:08:37;;;;;;;2.30;0.40;;;22.90;84.40;;;;;;6235214;23;20000;-69
2022/05/26 12:11:07;;;;;;;2.20;0.60;;;22.90;82.10;;;;;;6232614;23;20118;-69
2022/05/26 12:13:35;;;;;;;3.00;0.63;;;23.00;83.40;;;;;;6233406;23;20011;-69
2022/05/26 12:16:19;;;;;;;1.45;0.63;;;23.10;86.20;;;;;;6232104;23;20392;-69
2022/05/26 12:18:50;;;;;;;3.78;0.60;;;23.30;82.60;;;;;;6235197;23;20376;-69
2022/05/26 12:21:38;;;;;;;2.35;0.40;;;23.40;81.20;;;;;;6233499;23;20054;-74
2022/05/26 12:24:31;;;;;;;0.75;0.40;;;23.30;81.20;;;;;;6208333;23;20349;-70
2022/05/26 12:26:58;;;;;;;3.70;0.50;;;23.10;81.10;;;;;;6236069;23;20078;-75
2022/05/26 12:29:48;;;;;;;1.20;0.50;;;22.80;82.10;;;;;;6232062;23;20818;-72
2022/05/26 12:32:36;;;;;;;1.20;0.55;;;22.60;83.50;;;;;;6229992;23;20591;-73
2022/05/26 12:35:14;;;;;;;4.32;0.40;;;22.50;82.20;;;;;;6232797;23;20012;-73
2022/05/26 12:37:40;;;;;;;2.30;0.60;;;22.40;83.50;;;;;;6229922;23;20303;-70
2022/05/26 12:40:33;;;;;;;1.00;0.43;;;22.40;82.50;;;;;;6231525;23;20004;-70
2022/05/26 12:43:29;;;;;;;2.55;0.50;;;22.50;80.90;;;;;;6234365;23;20414;-72
2022/05/26 12:46:30;;;;;;;2.83;0.40;;;22.70;81.50;;;;;;6234084;23;20016;-71
2022/05/26 12:49:16;;;;;;;1.65;0.50;;;22.90;82.20;;;;;;6156012;23;20019;-72
2022/05/26 12:51:42;;;;;;;0.80;0.52;;;23.10;80.90;;;;;;6235007;23;20008;-71
2022/05/26 12:54:18;;;;;;;3.83;0.75;;;23.20;80.20;;;;;;6235225;23;20026;-72
2022/05/26 12:56:51;;;;;;;0.88;0.50;;;23.20;81.10;;;;;;6234248;23;20008;-65
2022/05/26 12:59:25;;;;;;;2.53;0.73;;;23.30;78.60;;;;;;6234815;23;20335;-65
2022/05/26 13:01:51;;;;;;;3.30;0.40;;;23.30;80.60;;;;;;6232720;23;20055;-67
2022/05/26 13:04:32;;;;;;;1.92;0.40;;;23.30;80.40;;;;;;6236039;23;20004;-68
2022/05/26 13:07:00;;;;;;;1.13;0.53;;;23.10;78.60;;;;;;6235178;23;20008;-69
2022/05/26 13:09:28;;;;;;;1.02;0.68;;;22.90;79.40;;;;;;6233486;23;20062;-70
2022/05/26 13:11:57;;;;;;;4.88;0.50;;;22.70;80.60;;;;;;6235145;23;20008;-70
2022/05/26 13:14:58;;;;;;;0.93;0.43;;;22.50;79.70;;;;;;6235113;22;20008;-71
2022/05/26 13:17:27;;;;;;;2.85;0.38;;;22.40;81.90;;;;;;6226280;23;20023;-71
2022/05/26 13:19:56;;;;;;;1.15;0.40;;;22.20;82.10;;;;;;6236815;23;20031;-71
2022/05/26 13:22:27;;;;;;;3.55;0.57;;;22.10;81.60;;;;;;6233752;23;20078;-75
2022/05/26 13:24:56;;;;;;;2.58;0.40;;;21.90;81.00;;;;;;6233063;23;20031;-76
2022/05/26 13:27:24;;;;;;;3.00;0.52;;;21.90;82.90;;;;;;6233469;23;20016;-75
2022/05/26 13:29:52;;;;;;;3.72;0.40;;;21.90;83.00;;;;;;6232350;23;20071;-74
2022/05/26 13:35:18;;;;;;;2.95;0.50;;;21.80;84.50;;;;;;6229993;23;20015;-74
2022/05/26 13:37:44;;;;;;;4.72;0.57;;;21.90;84.90;;;;;;6234467;23;20004;-79
2022/05/26 13:40:20;;;;;;;0.70;0.43;;;21.90;84.60;;;;;;6208314;23;20009;-74
2022/05/26 13:42:50;;;;;;;1.65;0.50;;;22.00;84.50;;;;;;6232295;23;20384;-77
2022/05/26 13:45:26;;;;;;;2.53;0.50;;;22.00;84.80;;;;;;6231001;23;20008;-75
2022/05/26 13:48:30;;;;;;;0.52;0.52;;;22.00;83.80;;;;;;6234771;23;20008;-74
2022/05/26 13:51:08;;;;;;;0.57;0.32;;;22.00;85.60;;;;;;6233118;23;20027;-75
2022/05/26 13:53:39;;;;;;;2.25;0.50;;;21.90;85.30;;;;;;6234969;23;20013;-78
2022/05/26 13:56:06;;;;;;;0.90;0.40;;;21.90;86.60;;;;;;6232427;23;20015;-80